Time;durP1;ratioP1;P1;durP2;ratioP2;P2;SDS_P1;SDS_P2;PMS_P1;PMS_P2;Temp;Humidity;BMP_temperature;BMP_pressure;BME280_temperature;BME280_humidity;BME280_pressure;Samples;Min_cycle;Max_cycle;Signal;HPM_P1;HPM_P2
2023/05/11 00:00:48;;;;;;;;;;;;;;;-147.27;100.00;65176.34;5104410;28;19970;-55
2023/05/11 00:03:14;;;;;;;;;;;;;;;-147.27;100.00;65176.34;5105669;28;19927;-54
2023/05/11 00:05:41;;;;;;;;;;;;;;;-147.27;100.00;65176.34;5104516;28;19988;-56
2023/05/11 00:08:07;;;;;;;;;;;;;;;-147.27;100.00;65176.34;5106245;28;19916;-55
2023/05/11 00:10:32;;;;;;;;;;;;;;;-147.27;100.00;65176.34;5104056;28;19983;-55
2023/05/11 00:12:57;;;;;;;;;;;;;;;-147.27;100.00;65176.34;5101671;28;19917;-55
2023/05/11 00:15:23;;;;;;;;;;;;;;;-147.27;100.00;65176.34;5099169;28;19924;-56
2023/05/11 00:17:48;;;;;;;;;;;;;;;-147.27;100.00;65176.34;5105020;28;19928;-56
2023/05/11 00:20:14;;;;;;;;;;;;;;;-147.27;100.00;65176.34;5099607;28;19948;-56
2023/05/11 00:22:40;;;;;;;;;;;;;;;-147.27;100.00;65176.34;5107236;28;19972;-55
2023/05/11 00:25:06;;;;;;;;;;;;;;;-147.27;100.00;65176.34;5105545;28;19916;-56
2023/05/11 00:27:31;;;;;;;;;;;;;;;-147.27;100.00;65176.34;5108632;28;19955;-55
2023/05/11 00:29:57;;;;;;;;;;;;;;;-147.27;100.00;65176.34;5102672;28;19920;-57
2023/05/11 00:32:22;;;;;;;;;;;;;;;-147.27;100.00;65176.34;5089376;28;19924;-56
2023/05/11 00:34:48;;;;;;;;;;;;;;;-147.27;100.00;65176.34;5092728;28;19943;-55
2023/05/11 00:37:13;;;;;;;;;;;;;;;-147.27;100.00;65176.34;5108104;28;19924;-56
2023/05/11 00:39:39;;;;;;;;;;;;;;;-147.27;100.00;65176.34;5088754;28;19929;-54
2023/05/11 00:42:05;;;;;;;;;;;;;;;-147.27;100.00;65176.34;5092622;28;19920;-55
2023/05/11 00:44:32;;;;;;;;;;;;;;;-147.27;100.00;65176.34;5102705;28;19912;-57
2023/05/11 00:46:57;;;;;;;;;;;;;;;-147.27;100.00;65176.34;5108741;28;19923;-56
2023/05/11 00:49:22;;;;;;;;;;;;;;;-147.27;100.00;65176.34;5105227;28;19939;-55
2023/05/11 00:51:48;;;;;;;;;;;;;;;-147.27;100.00;65176.34;5107347;28;19916;-55
2023/05/11 00:54:14;;;;;;;;;;;;;;;-147.27;100.00;65176.34;5117451;28;20048;-56
2023/05/11 00:56:40;;;;;;;;;;;;;;;-147.27;100.00;65176.34;5121014;28;19934;-56
2023/05/11 00:59:06;;;;;;;;;;;;;;;-147.27;100.00;65176.34;5118741;28;19966;-53
2023/05/11 01:01:32;;;;;;;;;;;;;;;-147.27;100.00;65176.34;5121489;28;19919;-57
2023/05/11 01:03:58;;;;;;;;;;;;;;;-147.27;100.00;65176.34;5120355;28;20295;-58
2023/05/11 01:06:31;;;;;;;;;;;;;;;-147.27;100.00;65176.34;5123456;28;19927;-54
2023/05/11 01:09:11;;;;;;;;;;;;;;;-147.27;100.00;65176.34;5123951;28;19923;-54
2023/05/11 01:11:42;;;;;;;;;;;;;;;-147.27;100.00;65176.34;5121964;28;19954;-56
2023/05/11 01:14:07;;;;;;;;;;;;;;;-147.27;100.00;65176.34;5124523;28;19937;-55
2023/05/11 01:16:36;;;;;;;;;;;;;;;-147.27;100.00;65176.34;5112779;28;19916;-54
2023/05/11 01:19:07;;;;;;;;;;;;;;;-147.27;100.00;65176.34;5117339;28;19926;-57
2023/05/11 01:21:33;;;;;;;;;;;;;;;-147.27;100.00;65176.34;5116641;28;19928;-55
2023/05/11 01:24:14;;;;;;;;;;;;;;;-147.27;100.00;65176.34;5116897;28;19916;-55
2023/05/11 01:26:59;;;;;;;;;;;;;;;-147.27;100.00;65176.34;5115826;28;19980;-55
2023/05/11 01:30:00;;;;;;;;;;;;;;;-147.27;100.00;65176.34;5118670;28;20018;-55
2023/05/11 01:32:28;;;;;;;;;;;;;;;-147.27;100.00;65176.34;5065230;28;19920;-53
2023/05/11 01:35:06;;;;;;;;;;;;;;;-147.27;100.00;65176.34;5106822;28;19927;-54
2023/05/11 01:37:32;;;;;;;;;;;;;;;-147.27;100.00;65176.34;5118723;28;19920;-53
2023/05/11 01:40:01;;;;;;;;;;;;;;;-147.27;100.00;65176.34;5148679;27;19923;-53
2023/05/11 01:42:34;;;;;;;;;;;;;;;-147.27;100.00;65176.34;5121554;28;19937;-56
2023/05/11 01:45:00;;;;;;;;;;;;;;;-147.27;100.00;65176.34;5120717;28;19939;-56
2023/05/11 01:47:27;;;;;;;;;;;;;;;-147.27;100.00;65176.34;5118694;28;19933;-57
2023/05/11 01:49:54;;;;;;;;;;;;;;;-147.27;100.00;65176.34;5115405;28;19912;-57
2023/05/11 01:52:22;;;;;;;;;;;;;;;-147.27;100.00;65176.34;5122600;28;20055;-57
2023/05/11 01:54:48;;;;;;;;;;;;;;;-147.27;100.00;65176.34;5123524;28;19938;-56
2023/05/11 01:57:15;;;;;;;;;;;;;;;-147.27;100.00;65176.34;5123923;28;19930;-57
2023/05/11 01:59:41;;;;;;;;;;;;;;;-147.27;100.00;65176.34;5123543;28;19941;-57
2023/05/11 02:02:08;;;;;;;;;;;;;;;-147.27;100.00;65176.34;5123815;28;19924;-57
2023/05/11 02:04:36;;;;;;;;;;;;;;;-147.27;100.00;65176.34;5107564;28;19915;-57
2023/05/11 02:07:01;;;;;;;;;;;;;;;-147.27;100.00;65176.34;5123648;28;19935;-56
2023/05/11 02:09:28;;;;;;;;;;;;;;;-147.27;100.00;65176.34;5124246;28;19976;-56
2023/05/11 02:11:56;;;;;;;;;;;;;;;-147.27;100.00;65176.34;5121994;28;19927;-59
2023/05/11 02:14:23;;;;;;;;;;;;;;;-147.27;100.00;65176.34;5125073;28;20013;-57
2023/05/11 02:16:49;;;;;;;;;;;;;;;-147.27;100.00;65176.34;5115708;28;19924;-58
2023/05/11 02:19:16;;;;;;;;;;;;;;;-147.27;100.00;65176.34;5153801;27;19916;-56
2023/05/11 02:21:42;;;;;;;;;;;;;;;-147.27;100.00;65176.34;5121033;28;20810;-56
2023/05/11 02:24:09;;;;;;;;;;;;;;;-147.27;100.00;65176.34;5121753;28;19916;-55
2023/05/11 02:26:34;;;;;;;;;;;;;;;-147.27;100.00;65176.34;5120008;28;19916;-56
2023/05/11 02:29:00;;;;;;;;;;;;;;;-147.27;100.00;65176.34;5122795;28;19923;-54
2023/05/11 02:31:31;;;;;;;;;;;;;;;-147.27;100.00;65176.34;5152088;27;19916;-55
2023/05/11 02:34:05;;;;;;;;;;;;;;;-147.27;100.00;65176.34;5126092;28;19966;-55
2023/05/11 02:36:32;;;;;;;;;;;;;;;-147.27;100.00;65176.34;5125563;28;19916;-54
2023/05/11 02:39:03;;;;;;;;;;;;;;;-147.27;100.00;65176.34;5126014;28;19922;-55
2023/05/11 02:41:30;;;;;;;;;;;;;;;-147.27;100.00;65176.34;5156802;27;19920;-56
2023/05/11 02:44:00;;;;;;;;;;;;;;;-147.27;100.00;65176.34;5122087;28;19915;-55
2023/05/11 02:46:27;;;;;;;;;;;;;;;-147.27;100.00;65176.34;5123299;28;19920;-55
2023/05/11 02:48:55;;;;;;;;;;;;;;;-147.27;100.00;65176.34;5127763;28;20047;-56
2023/05/11 02:51:25;;;;;;;;;;;;;;;-147.27;100.00;65176.34;5124454;28;19927;-56
2023/05/11 02:53:53;;;;;;;;;;;;;;;-147.27;100.00;65176.34;5124312;28;19924;-56
2023/05/11 02:56:20;;;;;;;;;;;;;;;-147.27;100.00;65176.34;5127360;28;19916;-57
2023/05/11 02:58:47;;;;;;;;;;;;;;;-147.27;100.00;65176.34;5119077;28;19926;-56
2023/05/11 03:01:18;;;;;;;;;;;;;;;-147.27;100.00;65176.34;5120287;28;19926;-53
2023/05/11 03:03:45;;;;;;;;;;;;;;;-147.27;100.00;65176.34;5125201;28;19945;-55
2023/05/11 03:06:11;;;;;;;;;;;;;;;-147.27;100.00;65176.34;5124568;28;19919;-56
2023/05/11 03:08:37;;;;;;;;;;;;;;;-147.27;100.00;65176.34;5126758;28;19962;-54
2023/05/11 03:11:04;;;;;;;;;;;;;;;-147.27;100.00;65176.34;5125241;28;19937;-55
2023/05/11 03:13:30;;;;;;;;;;;;;;;-147.27;100.00;65176.34;5127630;28;19948;-57
2023/05/11 03:15:58;;;;;;;;;;;;;;;-147.27;100.00;65176.34;5123981;28;19982;-53
2023/05/11 03:18:25;;;;;;;;;;;;;;;-147.27;100.00;65176.34;5124354;28;19915;-57
2023/05/11 03:20:50;;;;;;;;;;;;;;;-147.27;100.00;65176.34;5121055;28;20006;-54
2023/05/11 03:23:17;;;;;;;;;;;;;;;-147.27;100.00;65176.34;5125164;28;19923;-55
2023/05/11 03:25:43;;;;;;;;;;;;;;;-147.27;100.00;65176.34;5126626;28;19923;-58
2023/05/11 03:28:10;;;;;;;;;;;;;;;-147.27;100.00;65176.34;5126373;28;19984;-54
2023/05/11 03:30:36;;;;;;;;;;;;;;;-147.27;100.00;65176.34;5119683;28;19920;-56
2023/05/11 03:33:02;;;;;;;;;;;;;;;-147.27;100.00;65176.34;5124789;28;19916;-54
2023/05/11 03:35:30;;;;;;;;;;;;;;;-147.27;100.00;65176.34;5125817;28;19938;-54
2023/05/11 03:37:56;;;;;;;;;;;;;;;-147.27;100.00;65176.34;5124988;28;19927;-54
2023/05/11 03:40:23;;;;;;;;;;;;;;;-147.27;100.00;65176.34;5124616;28;19924;-54
2023/05/11 03:42:53;;;;;;;;;;;;;;;-147.27;100.00;65176.34;5122846;28;19916;-54
2023/05/11 03:45:19;;;;;;;;;;;;;;;-147.27;100.00;65176.34;5123487;28;19927;-55
2023/05/11 03:47:47;;;;;;;;;;;;;;;-147.27;100.00;65176.34;5122518;28;20370;-52
2023/05/11 03:50:14;;;;;;;;;;;;;;;-147.27;100.00;65176.34;5124428;28;20789;-56
2023/05/11 03:52:40;;;;;;;;;;;;;;;-147.27;100.00;65176.34;5125525;28;19927;-56
2023/05/11 03:55:06;;;;;;;;;;;;;;;-147.27;100.00;65176.34;5124044;28;19916;-54
2023/05/11 03:57:32;;;;;;;;;;;;;;;-147.27;100.00;65176.34;5125042;28;19927;-54
2023/05/11 03:59:58;;;;;;;;;;;;;;;-147.27;100.00;65176.34;5126690;28;19916;-51
2023/05/11 04:02:23;;;;;;;;;;;;;;;-147.27;100.00;65176.34;5162014;27;19916;-55
2023/05/11 04:04:49;;;;;;;;;;;;;;;-147.27;100.00;65176.34;5126541;28;19926;-51
2023/05/11 04:07:15;;;;;;;;;;;;;;;-147.27;100.00;65176.34;5128963;28;20968;-53
2023/05/11 04:09:40;;;;;;;;;;;;;;;-147.27;100.00;65176.34;5126212;28;19924;-56
2023/05/11 04:12:06;;;;;;;;;;;;;;;-147.27;100.00;65176.34;5124030;28;19926;-53
2023/05/11 04:14:31;;;;;;;;;;;;;;;-147.27;100.00;65176.34;5128704;28;19988;-52
2023/05/11 04:16:58;;;;;;;;;;;;;;;-147.27;100.00;65176.34;5124213;28;19955;-58
2023/05/11 04:19:25;;;;;;;;;;;;;;;-147.27;100.00;65176.34;5128788;28;19916;-51
2023/05/11 04:21:51;;;;;;;;;;;;;;;-147.27;100.00;65176.34;5121239;28;19977;-55
2023/05/11 04:24:16;;;;;;;;;;;;;;;-147.27;100.00;65176.34;5125533;28;19950;-55
2023/05/11 04:26:42;;;;;;;;;;;;;;;-147.27;100.00;65176.34;5126049;28;20358;-52
2023/05/11 04:29:08;;;;;;;;;;;;;;;-147.27;100.00;65176.34;5124837;28;19916;-55
2023/05/11 04:31:34;;;;;;;;;;;;;;;-147.27;100.00;65176.34;5123238;28;19923;-55
2023/05/11 04:34:02;;;;;;;;;;;;;;;-147.27;100.00;65176.34;5124546;28;19976;-54
2023/05/11 04:36:27;;;;;;;;;;;;;;;-147.27;100.00;65176.34;5120141;28;19927;-55
2023/05/11 04:38:53;;;;;;;;;;;;;;;-147.27;100.00;65176.34;5123810;28;19923;-54
2023/05/11 04:41:19;;;;;;;;;;;;;;;-147.27;100.00;65176.34;5120993;28;19942;-54
2023/05/11 04:43:45;;;;;;;;;;;;;;;-147.27;100.00;65176.34;5121909;28;19923;-55
2023/05/11 04:46:11;;;;;;;;;;;;;;;-147.27;100.00;65176.34;5122556;28;19920;-55
2023/05/11 04:48:37;;;;;;;;;;;;;;;-147.27;100.00;65176.34;5125292;28;19944;-54
2023/05/11 04:51:04;;;;;;;;;;;;;;;-147.27;100.00;65176.34;5122661;28;19916;-54
2023/05/11 04:53:32;;;;;;;;;;;;;;;-147.27;100.00;65176.34;5122007;28;19980;-55
2023/05/11 04:55:57;;;;;;;;;;;;;;;-147.27;100.00;65176.34;5121818;28;19916;-55
2023/05/11 04:58:23;;;;;;;;;;;;;;;-147.27;100.00;65176.34;5117684;28;19983;-55
2023/05/11 05:00:48;;;;;;;;;;;;;;;-147.27;100.00;65176.34;5120987;28;19927;-57
2023/05/11 05:03:14;;;;;;;;;;;;;;;-147.27;100.00;65176.34;5124386;28;19919;-55
2023/05/11 05:05:39;;;;;;;;;;;;;;;-147.27;100.00;65176.34;5120898;28;19920;-54
2023/05/11 05:08:06;;;;;;;;;;;;;;;-147.27;100.00;65176.34;5122755;28;19920;-55
2023/05/11 05:10:31;;;;;;;;;;;;;;;-147.27;100.00;65176.34;5124938;28;19977;-55
2023/05/11 05:12:57;;;;;;;;;;;;;;;-147.27;100.00;65176.34;5122898;28;19915;-57
2023/05/11 05:15:22;;;;;;;;;;;;;;;-147.27;100.00;65176.34;5121127;28;19924;-54
2023/05/11 05:17:48;;;;;;;;;;;;;;;-147.27;100.00;65176.34;5119964;28;19955;-55
2023/05/11 05:20:14;;;;;;;;;;;;;;;-147.27;100.00;65176.34;5117241;28;19986;-52
2023/05/11 05:22:40;;;;;;;;;;;;;;;-147.27;100.00;65176.34;5120474;28;19916;-55
2023/05/11 05:25:07;;;;;;;;;;;;;;;-147.27;100.00;65176.34;5118036;28;19942;-52
2023/05/11 05:27:32;;;;;;;;;;;;;;;-147.27;100.00;65176.34;5119663;28;19983;-55
2023/05/11 05:29:58;;;;;;;;;;;;;;;-147.27;100.00;65176.34;5117241;28;19938;-56
2023/05/11 05:32:24;;;;;;;;;;;;;;;-147.27;100.00;65176.34;5120511;28;19915;-52
2023/05/11 05:34:50;;;;;;;;;;;;;;;-147.27;100.00;65176.34;5119394;28;19924;-56
2023/05/11 05:37:15;;;;;;;;;;;;;;;-147.27;100.00;65176.34;5120658;28;19990;-52
2023/05/11 05:39:41;;;;;;;;;;;;;;;-147.27;100.00;65176.34;5118717;28;19920;-56
2023/05/11 05:42:07;;;;;;;;;;;;;;;-147.27;100.00;65176.34;5120079;28;19955;-56
2023/05/11 05:44:33;;;;;;;;;;;;;;;-147.27;100.00;65176.34;5115049;28;19916;-55
2023/05/11 05:46:59;;;;;;;;;;;;;;;-147.27;100.00;65176.34;5121056;28;19923;-57
2023/05/11 05:49:28;;;;;;;;;;;;;;;-147.27;100.00;65176.34;5115278;28;19916;-54
2023/05/11 05:51:54;;;;;;;;;;;;;;;-147.27;100.00;65176.34;5122410;28;19916;-57
2023/05/11 05:54:20;;;;;;;;;;;;;;;-147.27;100.00;65176.34;5112011;28;19920;-51
2023/05/11 05:56:46;;;;;;;;;;;;;;;-147.27;100.00;65176.34;5122713;28;19947;-55
2023/05/11 05:59:14;;;;;;;;;;;;;;;-147.27;100.00;65176.34;5118132;28;19924;-56
2023/05/11 06:01:44;;;;;;;;;;;;;;;-147.27;100.00;65176.34;5151140;27;19916;-54
2023/05/11 06:04:11;;;;;;;;;;;;;;;-147.27;100.00;65176.34;5150867;27;19912;-53
2023/05/11 06:06:36;;;;;;;;;;;;;;;-147.27;100.00;65176.34;5116375;28;20014;-56
2023/05/11 06:09:02;;;;;;;;;;;;;;;-147.27;100.00;65176.34;5125923;28;19916;-56
2023/05/11 06:11:27;;;;;;;;;;;;;;;-147.27;100.00;65176.34;5124460;28;19916;-53
2023/05/11 06:13:52;;;;;;;;;;;;;;;-147.27;100.00;65176.34;5122751;28;19972;-54
2023/05/11 06:16:18;;;;;;;;;;;;;;;-147.27;100.00;65176.34;5126168;28;19920;-53
2023/05/11 06:18:44;;;;;;;;;;;;;;;-147.27;100.00;65176.34;5122212;28;19923;-55
2023/05/11 06:21:10;;;;;;;;;;;;;;;-147.27;100.00;65176.34;5129552;28;19931;-56
2023/05/11 06:23:35;;;;;;;;;;;;;;;-147.27;100.00;65176.34;5124189;28;19915;-53
2023/05/11 06:26:00;;;;;;;;;;;;;;;-147.27;100.00;65176.34;5129530;28;19991;-56
2023/05/11 06:28:28;;;;;;;;;;;;;;;-147.27;100.00;65176.34;5128549;28;19924;-55
2023/05/11 06:30:58;;;;;;;;;;;;;;;-147.27;100.00;65176.34;5127273;28;19927;-55
2023/05/11 06:33:25;;;;;;;;;;;;;;;-147.27;100.00;65176.34;5128620;28;19926;-54
2023/05/11 06:35:53;;;;;;;;;;;;;;;-147.27;100.00;65176.34;5127470;28;19934;-55
2023/05/11 06:38:18;;;;;;;;;;;;;;;-147.27;100.00;65176.34;5158058;27;19912;-55
2023/05/11 06:40:44;;;;;;;;;;;;;;;-147.27;100.00;65176.34;5125954;28;19920;-55
2023/05/11 06:43:10;;;;;;;;;;;;;;;-147.27;100.00;65176.34;5126542;28;19912;-55
2023/05/11 06:45:44;;;;;;;;;;;;;;;-147.27;100.00;65176.34;5127626;28;19916;-57
2023/05/11 06:48:10;;;;;;;;;;;;;;;-147.27;100.00;65176.34;5124315;28;19971;-57
2023/05/11 06:50:35;;;;;;;;;;;;;;;-147.27;100.00;65176.34;5124957;28;19924;-53
2023/05/11 06:53:01;;;;;;;;;;;;;;;-147.27;100.00;65176.34;5126767;28;20132;-52
2023/05/11 06:55:27;;;;;;;;;;;;;;;-147.27;100.00;65176.34;5127355;28;19954;-55
2023/05/11 06:57:53;;;;;;;;;;;;;;;-147.27;100.00;65176.34;5124795;27;19920;-55
2023/05/11 07:00:18;;;;;;;;;;;;;;;-147.27;100.00;65176.34;5126983;28;19946;-56
2023/05/11 07:02:44;;;;;;;;;;;;;;;-147.27;100.00;65176.34;5126386;28;19975;-55
2023/05/11 07:05:11;;;;;;;;;;;;;;;-147.27;100.00;65176.34;5128457;28;19987;-55
2023/05/11 07:07:37;;;;;;;;;;;;;;;-147.27;100.00;65176.34;5127339;28;19915;-51
2023/05/11 07:10:06;;;;;;;;;;;;;;;-147.27;100.00;65176.34;5125820;28;19916;-51
2023/05/11 07:12:32;;;;;;;;;;;;;;;-147.27;100.00;65176.34;5128065;28;19942;-50
2023/05/11 07:14:57;;;;;;;;;;;;;;;-147.27;100.00;65176.34;5130775;28;20014;-54
2023/05/11 07:17:23;;;;;;;;;;;;;;;-147.27;100.00;65176.34;5123979;28;19916;-52
2023/05/11 07:19:51;;;;;;;;;;;;;;;-147.27;100.00;65176.34;5125007;28;19916;-54
2023/05/11 07:22:16;;;;;;;;;;;;;;;-147.27;100.00;65176.34;5122273;28;19920;-52
2023/05/11 07:24:42;;;;;;;;;;;;;;;-147.27;100.00;65176.34;5123127;28;19941;-54
2023/05/11 07:27:07;;;;;;;;;;;;;;;-147.27;100.00;65176.34;5125731;28;19916;-48
2023/05/11 07:29:33;;;;;;;;;;;;;;;-147.27;100.00;65176.34;5122743;28;19990;-54
2023/05/11 07:31:58;;;;;;;;;;;;;;;-147.27;100.00;65176.34;5127667;28;20057;-54
2023/05/11 07:34:23;;;;;;;;;;;;;;;-147.27;100.00;65176.34;5121092;28;19919;-50
2023/05/11 07:36:49;;;;;;;;;;;;;;;-147.27;100.00;65176.34;5130584;28;19916;-54
2023/05/11 07:39:15;;;;;;;;;;;;;;;-147.27;100.00;65176.34;5124916;28;19920;-53
2023/05/11 07:41:41;;;;;;;;;;;;;;;-147.27;100.00;65176.34;5123291;28;19920;-54
2023/05/11 07:44:06;;;;;;;;;;;;;;;-147.27;100.00;65176.34;5124906;28;19912;-49
2023/05/11 07:46:32;;;;;;;;;;;;;;;-147.27;100.00;65176.34;5118558;28;19999;-54
2023/05/11 07:48:57;;;;;;;;;;;;;;;-147.27;100.00;65176.34;5121134;28;19912;-51
2023/05/11 07:51:23;;;;;;;;;;;;;;;-147.27;100.00;65176.34;5122396;28;19920;-53
2023/05/11 07:53:48;;;;;;;;;;;;;;;-147.27;100.00;65176.34;5111960;28;19927;-55
2023/05/11 07:56:14;;;;;;;;;;;;;;;-147.27;100.00;65176.34;5109861;28;19927;-52
2023/05/11 07:58:39;;;;;;;;;;;;;;;-147.27;100.00;65176.34;5103818;28;19980;-52
2023/05/11 08:01:05;;;;;;;;;;;;;;;-147.27;100.00;65176.34;5108313;28;19932;-53
2023/05/11 08:03:30;;;;;;;;;;;;;;;-147.27;100.00;65176.34;5107338;28;19916;-51
2023/05/11 08:05:56;;;;;;;;;;;;;;;-147.27;100.00;65176.34;5107782;28;19934;-50
2023/05/11 08:08:23;;;;;;;;;;;;;;;-147.27;100.00;65176.34;5090297;28;19920;-50
2023/05/11 08:10:49;;;;;;;;;;;;;;;-147.27;100.00;65176.34;5107451;28;19923;-54
2023/05/11 08:13:15;;;;;;;;;;;;;;;-147.27;100.00;65176.34;5107338;28;19916;-52
2023/05/11 08:15:40;;;;;;;;;;;;;;;-147.27;100.00;65176.34;5105001;28;19923;-54
2023/05/11 08:18:06;;;;;;;;;;;;;;;-147.27;100.00;65176.34;5104288;28;20003;-49
2023/05/11 08:20:32;;;;;;;;;;;;;;;-147.27;100.00;65176.34;5105859;28;19921;-50
2023/05/11 08:22:57;;;;;;;;;;;;;;;-147.27;100.00;65176.34;5089429;28;19922;-55
2023/05/11 08:25:23;;;;;;;;;;;;;;;-147.27;100.00;65176.34;5106780;28;19951;-50
2023/05/11 08:27:49;;;;;;;;;;;;;;;-147.27;100.00;65176.34;5104015;28;19998;-52
2023/05/11 08:30:15;;;;;;;;;;;;;;;-147.27;100.00;65176.34;5107394;28;19916;-54
2023/05/11 08:32:41;;;;;;;;;;;;;;;-147.27;100.00;65176.34;5103007;28;19916;-53
2023/05/11 08:35:07;;;;;;;;;;;;;;;-147.27;100.00;65176.34;5103063;28;19983;-48
2023/05/11 08:37:33;;;;;;;;;;;;;;;-147.27;100.00;65176.34;5089855;28;19916;-52
2023/05/11 08:39:58;;;;;;;;;;;;;;;-147.27;100.00;65176.34;5105194;28;19939;-50
2023/05/11 08:42:24;;;;;;;;;;;;;;;-147.27;100.00;65176.34;5105373;28;19939;-53
2023/05/11 08:44:52;;;;;;;;;;;;;;;-147.27;100.00;65176.34;5107173;28;19922;-47
2023/05/11 08:47:18;;;;;;;;;;;;;;;-147.27;100.00;65176.34;5088814;28;19964;-48
2023/05/11 08:49:43;;;;;;;;;;;;;;;-147.27;100.00;65176.34;5104610;28;19916;-54
2023/05/11 08:52:09;;;;;;;;;;;;;;;-147.27;100.00;65176.34;5107469;28;19917;-50
2023/05/11 08:54:35;;;;;;;;;;;;;;;-147.27;100.00;65176.34;5122170;28;19916;-53
2023/05/11 08:57:01;;;;;;;;;;;;;;;-147.27;100.00;65176.34;5121997;28;19939;-54
2023/05/11 08:59:27;;;;;;;;;;;;;;;-147.27;100.00;65176.34;5120588;28;19927;-54
2023/05/11 09:01:53;;;;;;;;;;;;;;;-147.27;100.00;65176.34;5118200;28;19920;-52
2023/05/11 09:04:20;;;;;;;;;;;;;;;-147.27;100.00;65176.34;5122007;28;19919;-55
2023/05/11 09:06:46;;;;;;;;;;;;;;;-147.27;100.00;65176.34;5117593;28;19948;-52
2023/05/11 09:09:12;;;;;;;;;;;;;;;-147.27;100.00;65176.34;5122514;28;19919;-50
2023/05/11 09:11:38;;;;;;;;;;;;;;;-147.27;100.00;65176.34;5118807;28;19916;-51
2023/05/11 09:14:04;;;;;;;;;;;;;;;-147.27;100.00;65176.34;5118621;28;19916;-52
2023/05/11 09:16:29;;;;;;;;;;;;;;;-147.27;100.00;65176.34;5120665;28;19916;-49
2023/05/11 09:18:58;;;;;;;;;;;;;;;-147.27;100.00;65176.34;5123698;28;19916;-54
2023/05/11 09:21:24;;;;;;;;;;;;;;;-147.27;100.00;65176.34;5120723;28;19927;-51
2023/05/11 09:23:51;;;;;;;;;;;;;;;-147.27;100.00;65176.34;5120540;28;19916;-49
2023/05/11 09:26:20;;;;;;;;;;;;;;;-147.27;100.00;65176.34;5121908;28;19920;-50
2023/05/11 09:28:49;;;;;;;;;;;;;;;-147.27;100.00;65176.34;5119742;28;19974;-52
2023/05/11 09:31:33;;;;;;;;;;;;;;;-147.27;100.00;65176.34;5118224;28;19933;-53
2023/05/11 09:34:18;;;;;;;;;;;;;;;-147.27;100.00;65176.34;5118530;28;19915;-54
2023/05/11 09:36:48;;;;;;;;;;;;;;;-147.27;100.00;65176.34;5120960;28;19952;-52
2023/05/11 09:39:14;;;;;;;;;;;;;;;-147.27;100.00;65176.34;5120169;28;19927;-53
2023/05/11 09:41:40;;;;;;;;;;;;;;;-147.27;100.00;65176.34;5119471;28;19919;-54
2023/05/11 09:44:10;;;;;;;;;;;;;;;-147.27;100.00;65176.34;5122547;28;19917;-52
2023/05/11 09:46:37;;;;;;;;;;;;;;;-147.27;100.00;65176.34;5121706;28;19986;-54
2023/05/11 09:49:03;;;;;;;;;;;;;;;-147.27;100.00;65176.34;5120997;28;19920;-52
2023/05/11 09:51:33;;;;;;;;;;;;;;;-147.27;100.00;65176.34;5120919;28;19916;-50
2023/05/11 09:53:59;;;;;;;;;;;;;;;-147.27;100.00;65176.34;5123428;28;19989;-55
2023/05/11 09:56:44;;;;;;;;;;;;;;;-147.27;100.00;65176.34;5120547;28;19915;-54
2023/05/11 09:59:11;;;;;;;;;;;;;;;-147.27;100.00;65176.34;5119592;28;19922;-54
2023/05/11 10:01:37;;;;;;;;;;;;;;;-147.27;100.00;65176.34;5120651;28;19942;-53
2023/05/11 10:04:03;;;;;;;;;;;;;;;-147.27;100.00;65176.34;5119016;28;19994;-49
2023/05/11 10:06:50;;;;;;;;;;;;;;;-147.27;100.00;65176.34;5118984;28;19916;-54
2023/05/11 10:09:17;;;;;;;;;;;;;;;-147.27;100.00;65176.34;5115113;28;19912;-51
2023/05/11 10:11:43;;;;;;;;;;;;;;;-147.27;100.00;65176.34;5118673;28;19930;-54
2023/05/11 10:14:10;;;;;;;;;;;;;;;-147.27;100.00;65176.34;5116303;28;19916;-53
2023/05/11 10:16:36;;;;;;;;;;;;;;;-147.27;100.00;65176.34;5122556;28;19912;-56
2023/05/11 10:19:01;;;;;;;;;;;;;;;-147.27;100.00;65176.34;5119961;28;19916;-55
2023/05/11 10:21:27;;;;;;;;;;;;;;;-147.27;100.00;65176.34;5121197;28;19924;-54
2023/05/11 10:23:55;;;;;;;;;;;;;;;-147.27;100.00;65176.34;5122972;28;19916;-53
2023/05/11 10:26:20;;;;;;;;;;;;;;;-147.27;100.00;65176.34;5122531;28;19916;-54
2023/05/11 10:28:46;;;;;;;;;;;;;;;-147.27;100.00;65176.34;5121716;28;19924;-55
2023/05/11 10:31:12;;;;;;;;;;;;;;;-147.27;100.00;65176.34;5121569;28;19919;-51
2023/05/11 10:33:38;;;;;;;;;;;;;;;-147.27;100.00;65176.34;5118662;28;19965;-54
2023/05/11 10:36:04;;;;;;;;;;;;;;;-147.27;100.00;65176.34;5119449;28;19932;-52
2023/05/11 10:38:30;;;;;;;;;;;;;;;-147.27;100.00;65176.34;5121304;28;19922;-54
2023/05/11 10:41:02;;;;;;;;;;;;;;;-147.27;100.00;65176.34;5121057;28;19920;-53
2023/05/11 10:43:41;;;;;;;;;;;;;;;-147.27;100.00;65176.34;5117754;28;19990;-53
2023/05/11 10:46:10;;;;;;;;;;;;;;;-147.27;100.00;65176.34;5122078;28;19915;-52
2023/05/11 10:48:48;;;;;;;;;;;;;;;-147.27;100.00;65176.34;5119928;28;19948;-51
2023/05/11 10:51:22;;;;;;;;;;;;;;;-147.27;100.00;65176.34;5120324;28;19955;-57
2023/05/11 10:54:06;;;;;;;;;;;;;;;-147.27;100.00;65176.34;5116962;28;19920;-57
2023/05/11 10:56:41;;;;;;;;;;;;;;;-147.27;100.00;65176.34;5120720;28;19942;-53
2023/05/11 10:59:26;;;;;;;;;;;;;;;-147.27;100.00;65176.34;5121425;28;19916;-54
2023/05/11 11:01:56;;;;;;;;;;;;;;;-147.27;100.00;65176.34;5117287;28;19924;-55
2023/05/11 11:04:22;;;;;;;;;;;;;;;-147.27;100.00;65176.34;5122918;28;19931;-54
2023/05/11 11:07:02;;;;;;;;;;;;;;;-147.27;100.00;65176.34;5123800;28;19916;-52
2023/05/11 11:09:47;;;;;;;;;;;;;;;-147.27;100.00;65176.34;5120569;28;19942;-56
2023/05/11 11:12:13;;;;;;;;;;;;;;;-147.27;100.00;65176.34;5122841;28;19919;-55
2023/05/11 11:14:57;;;;;;;;;;;;;;;-147.27;100.00;65176.34;5122295;28;19923;-51
2023/05/11 11:17:25;;;;;;;;;;;;;;;-147.27;100.00;65176.34;5122604;28;19916;-55
2023/05/11 11:19:51;;;;;;;;;;;;;;;-147.27;100.00;65176.34;5126317;28;19963;-55
2023/05/11 11:22:33;;;;;;;;;;;;;;;-147.27;100.00;65176.34;5125921;28;19920;-54
2023/05/11 11:24:59;;;;;;;;;;;;;;;-147.27;100.00;65176.34;5120143;28;19916;-53
2023/05/11 11:27:40;;;;;;;;;;;;;;;-147.27;100.00;65176.34;5124978;28;19927;-52
2023/05/11 11:30:17;;;;;;;;;;;;;;;-147.27;100.00;65176.34;5121670;28;19920;-53
2023/05/11 11:32:43;;;;;;;;;;;;;;;-147.27;100.00;65176.34;5120436;28;19920;-52
2023/05/11 11:35:27;;;;;;;;;;;;;;;-147.27;100.00;65176.34;5124273;28;19975;-56
2023/05/11 11:37:59;;;;;;;;;;;;;;;-147.27;100.00;65176.34;5119568;28;20002;-55
2023/05/11 11:40:34;;;;;;;;;;;;;;;-147.27;100.00;65176.34;5123270;28;19978;-57
2023/05/11 11:43:08;;;;;;;;;;;;;;;-147.27;100.00;65176.34;5125529;28;19983;-56
2023/05/11 11:45:35;;;;;;;;;;;;;;;-147.27;100.00;65176.34;5127128;28;19915;-56
2023/05/11 11:48:24;;;;;;;;;;;;;;;-147.27;100.00;65176.34;5126344;28;19916;-56
2023/05/11 11:51:00;;;;;;;;;;;;;;;-147.27;100.00;65176.34;5118333;28;19939;-53
2023/05/11 11:53:35;;;;;;;;;;;;;;;-147.27;100.00;65176.34;5112471;28;19921;-51
2023/05/11 11:56:06;;;;;;;;;;;;;;;-147.27;100.00;65176.34;5101861;28;21290;-56
2023/05/11 11:58:44;;;;;;;;;;;;;;;-147.27;100.00;65176.34;5103689;28;19916;-54
2023/05/11 12:01:14;;;;;;;;;;;;;;;-147.27;100.00;65176.34;5103573;28;19920;-56
2023/05/11 12:03:42;;;;;;;;;;;;;;;-147.27;100.00;65176.34;5104786;28;19917;-53
2023/05/11 12:06:09;;;;;;;;;;;;;;;-147.27;100.00;65176.34;5105045;28;19916;-51
2023/05/11 12:08:35;;;;;;;;;;;;;;;-147.27;100.00;65176.34;5103655;28;19900;-51
2023/05/11 12:11:02;;;;;;;;;;;;;;;-147.27;100.00;65176.34;5107940;28;19927;-52
2023/05/11 12:13:28;;;;;;;;;;;;;;;-147.27;100.00;65176.34;5108919;28;19958;-56
2023/05/11 12:16:10;;;;;;;;;;;;;;;-147.27;100.00;65176.34;5109176;28;19916;-54
2023/05/11 12:18:36;;;;;;;;;;;;;;;-147.27;100.00;65176.34;5105639;28;19941;-51
2023/05/11 12:21:01;;;;;;;;;;;;;;;-147.27;100.00;65176.34;5105380;28;19936;-55